Meteo Giornale » Osservazioni meteo Egitto » Cairo

ore: 00:30 - Osservazioni Meteo Cairo
Lat. 30° 8' N Lon. 31° 24' E Alt. 64 metri s.l.m.

molto_nuvoloso Africa/Cairo

18 °C

Molto Nuvoloso

Temp. 24 Ore

15 °C

25 °C

Nord

0 Km/h

Dew point 12 °C

Umidità 67 %

Visibilità  6 Km

Il sole sorge alle ore 06:26

Il sole tramonta alle ore 17:49

Data e Ora Cielo e Fenomeni T °C DP °C Um. % Pres. hPa Vis. km Vento km/h
Oggi h: 00:30 molto_nuvoloso Molto Nuvoloso 18 12 67 1010 6 N 0
Oggi h: 00:00 molto_nuvoloso Molto Nuvoloso 18 12 67 1010 6 N 0
Ieri h: 23:30 molto_nuvoloso Molto Nuvoloso 19 11 59 1010 6 S/SE 7.4
Ieri h: 23:00 molto_nuvoloso Molto Nuvoloso 19 10 55 1010 6 S 14.8
Ieri h: 22:30 molto_nuvoloso Molto Nuvoloso 19 10 55 1011 6 S 18.5
Ieri h: 22:00 coperto_pioggia Pioggia Debole 19 10 55 1011 6 S/SE 18.5
Ieri h: 21:30 molto_nuvoloso Molto Nuvoloso 20 10 52 1011 10 S 11.1
Ieri h: 21:00 molto_nuvoloso Molto Nuvoloso 20 9 49 1011 10 S 9.3
Ieri h: 20:30 coperto_pioggia Pioggia Debole 20 10 52 1011 6 S/SO 22.2
Ieri h: 20:00 molto_nuvoloso Molto Nuvoloso 22 5 32 1011 6 SO 22.2
Ieri h: 19:30 molto_nuvoloso Sabbia Diffusa 23 3 26 1010 3 S/SO 18.5
Ieri h: 19:00 molto_nuvoloso Sabbia Diffusa 23 1 23 1009 3 O/SO 18.5
Ieri h: 18:30 molto_nuvoloso Sabbia Diffusa 23 1 23 1009 3 O/SO 25.9
Ieri h: 18:00 molto_nuvoloso Sabbia Diffusa 24 1 22 1008 3 O/SO 22.2
Ieri h: 17:30 molto_nuvoloso Molto Nuvoloso 24 3 25 1008 6 SO 22.2
Ieri h: 17:00 molto_nuvoloso Molto Nuvoloso 24 4 27 1008 6 S/SO 22.2
Ieri h: 16:30 molto_nuvoloso Molto Nuvoloso 25 4 25 1007 6 S/SO 18.5
Ieri h: 16:00 molto_nuvoloso Molto Nuvoloso 25 2 22 1007 6 S 24
Ieri h: 15:00 molto_nuvoloso Molto Nuvoloso 25 2 22 1007 6 S 27.8
Ieri h: 14:30 molto_nuvoloso Molto Nuvoloso 25 3 23 1007 6 S 27.8
Ieri h: 14:00 molto_nuvoloso Molto Nuvoloso 25 3 23 1007 6 S 27.8
Ieri h: 13:30 molto_nuvoloso Molto Nuvoloso 25 1 20 1007 6 S 27.8
Ieri h: 13:00 molto_nuvoloso Molto Nuvoloso 25 3 23 1007 10 S 25.9
Ieri h: 12:30 molto_nuvoloso Molto Nuvoloso 25 3 23 1007 10 S 29.6
Ieri h: 12:00 molto_nuvoloso Molto Nuvoloso 25 3 23 1008 10 S 24
Ieri h: 11:30 molto_nuvoloso Molto Nuvoloso 24 3 25 1008 10 S 16.7
Ieri h: 11:00 molto_nuvoloso Molto Nuvoloso 25 3 23 1009 10 S 20.3
Ieri h: 10:30 nuvoloso Nuvoloso 25 4 25 1009 6 S/SE 14.8
Ieri h: 10:00 nuvoloso Nuvoloso 23 5 31 1009 6 N 0
Ieri h: 09:30 nuvoloso Nuvoloso 21 5 35 1009 6 N 0
Ieri h: 09:00 nuvoloso Nuvoloso 20 5 37 1009 6 N 0
Ieri h: 08:30 nuvoloso Nuvoloso 18 6 45 1009 6 N 0
Ieri h: 08:00 nuvoloso Nuvoloso 16 6 51 1009 6 N 0
Ieri h: 07:30 nuvoloso Nuvoloso 16 6 51 1009 10 N 5.5
Ieri h: 07:00 nuvoloso Nuvoloso 15 6 54 1009 10 N 0
Ieri h: 06:30 sereno Sereno 15 6 54 1009 10 S/SE 7.4
Ieri h: 06:00 sereno Sereno 15 6 54 1008 10 N 0
Ieri h: 05:30 sereno Sereno 15 6 54 1009 10 N 0
Ieri h: 05:00 sereno Sereno 15 6 54 1009 10 N 0
Ieri h: 04:30 sereno Sereno 15 6 54 1009 10 N 0
Ieri h: 04:00 sereno Sereno 15 7 58 1009 10 N 5.5
Ieri h: 03:30 sereno Sereno 15 7 58 1009 10 N 0
Ieri h: 03:00 sereno Sereno 15 7 58 1009 10 N 0
Ieri h: 02:30 sereno Sereno 16 7 55 1009 10 N 0
Ieri h: 02:00 sereno Sereno 16 8 58 1010 10 N 3.7
Ieri h: 01:30 sereno Sereno 16 8 58 1010 10 E 7.4
Ieri h: 01:00 sereno Sereno 16 8 58 1010 10 E 16.7
Ieri h: 00:30 sereno Sereno 17 8 55 1010 10 E 24
Ieri h: 00:00 sereno Sereno 17 8 55 1011 10 E 20.3